Colemans Lake, Georgia
Current Conditions -  °F | °C
As of 6:53 PM on Monday 22 Dec 2014 (Local Time) from KAGS Reporting Station
Overcast Overcast  
Wind Chill: 42°   Ceiling: 600
Heat Index: 46°   Visibility: 10mi
Dew Point: 44°   Wind: 8mph
Humidity: 93%   Direction: 40°NE
Pressure: 29.99"   Gusts: NA
Location:  32.896°N, 82.1972°W
Report Text: KAGS 222353Z 04007KT 10SM OVC006 08/07 A2999 RMK AO2 SLP155 60003 T00780067 10083 20078 50004
Loading
Personal Weather Stations






























Interactive Weather Map New forecast layout! Learn more

10-Day Weather Forecast

Advertisements
Track Severe Weather on mobile